sensor_id;sensor_type;location;lat;lon;timestamp;P1;durP1;ratioP1;P2;durP2;ratioP2
43413;SDS011;73638;49.676;8.606;2024-03-02T00:00:29;8.0678;;;13.4154;;
43413;SDS011;73638;49.676;8.606;2024-03-02T00:05:35;8.1627;;;14.0251;;
43413;SDS011;73638;49.676;8.606;2024-03-02T00:10:42;8.1917;;;13.9756;;
43413;SDS011;73638;49.676;8.606;2024-03-02T00:15:51;8.9067;;;17.0333;;
43413;SDS011;73638;49.676;8.606;2024-03-02T00:20:55;8.996;;;14.3271;;
43413;SDS011;73638;49.676;8.606;2024-03-02T00:26:02;8.1562;;;15.4896;;
43413;SDS011;73638;49.676;8.606;2024-03-02T00:31:09;7.4575;;;12.0835;;
43413;SDS011;73638;49.676;8.606;2024-03-02T00:36:15;7.2214;;;12.1703;;
43413;SDS011;73638;49.676;8.606;2024-03-02T00:41:22;7.9461;;;13.7215;;
43413;SDS011;73638;49.676;8.606;2024-03-02T00:46:29;7.6165;;;13.8399;;
43413;SDS011;73638;49.676;8.606;2024-03-02T00:51:35;7.9188;;;15.9172;;
43413;SDS011;73638;49.676;8.606;2024-03-02T00:56:41;6.5991;;;12.0092;;
43413;SDS011;73638;49.676;8.606;2024-03-02T01:01:48;6.613;;;10.6514;;
43413;SDS011;73638;49.676;8.606;2024-03-02T01:06:55;6.5719;;;11.7681;;
43413;SDS011;73638;49.676;8.606;2024-03-02T01:12:01;7.1073;;;11.96;;
43413;SDS011;73638;49.676;8.606;2024-03-02T01:17:08;7.4457;;;14.6492;;
43413;SDS011;73638;49.676;8.606;2024-03-02T01:22:15;6.2832;;;11.9296;;
43413;SDS011;73638;49.676;8.606;2024-03-02T01:27:21;6.8493;;;12.2543;;
43413;SDS011;73638;49.676;8.606;2024-03-02T01:32:28;7.5424;;;17.769;;
43413;SDS011;73638;49.676;8.606;2024-03-02T01:37:34;7.3177;;;15.0956;;
43413;SDS011;73638;49.676;8.606;2024-03-02T01:42:41;6.6555;;;13.1238;;
43413;SDS011;73638;49.676;8.606;2024-03-02T01:47:48;6.7567;;;11.1992;;
43413;SDS011;73638;49.676;8.606;2024-03-02T01:52:55;6.4229;;;10.3386;;
43413;SDS011;73638;49.676;8.606;2024-03-02T01:58:01;6.7012;;;13.4977;;
43413;SDS011;73638;49.676;8.606;2024-03-02T02:03:07;6.8921;;;12.4517;;
43413;SDS011;73638;49.676;8.606;2024-03-02T02:08:14;6.3099;;;10.7283;;
43413;SDS011;73638;49.676;8.606;2024-03-02T02:13:20;6.5427;;;10.1027;;
43413;SDS011;73638;49.676;8.606;2024-03-02T02:18:27;7.3769;;;14.6196;;
43413;SDS011;73638;49.676;8.606;2024-03-02T02:23:33;7.0829;;;12.2102;;
43413;SDS011;73638;49.676;8.606;2024-03-02T02:28:40;7.2494;;;12.7675;;
43413;SDS011;73638;49.676;8.606;2024-03-02T02:33:46;7.2965;;;12.5989;;
43413;SDS011;73638;49.676;8.606;2024-03-02T02:38:53;7.9919;;;15.2809;;
43413;SDS011;73638;49.676;8.606;2024-03-02T02:44:00;7.5583;;;11.8606;;
43413;SDS011;73638;49.676;8.606;2024-03-02T02:49:07;7.4412;;;11.5228;;
43413;SDS011;73638;49.676;8.606;2024-03-02T02:54:13;7.1953;;;12.4202;;
43413;SDS011;73638;49.676;8.606;2024-03-02T02:59:19;6.69;;;11.7743;;
43413;SDS011;73638;49.676;8.606;2024-03-02T03:04:26;7.2956;;;12.3521;;
43413;SDS011;73638;49.676;8.606;2024-03-02T03:09:33;7.7724;;;13.2937;;
43413;SDS011;73638;49.676;8.606;2024-03-02T03:14:40;6.6276;;;12.329;;
43413;SDS011;73638;49.676;8.606;2024-03-02T03:19:45;6.2843;;;12.3229;;
43413;SDS011;73638;49.676;8.606;2024-03-02T03:24:52;6.7152;;;12.0603;;
43413;SDS011;73638;49.676;8.606;2024-03-02T03:29:59;6.119;;;11.8605;;
43413;SDS011;73638;49.676;8.606;2024-03-02T03:35:06;6.4281;;;10.8035;;
43413;SDS011;73638;49.676;8.606;2024-03-02T03:40:12;6.7904;;;13.5076;;
43413;SDS011;73638;49.676;8.606;2024-03-02T03:45:18;6.2925;;;9.7157;;
43413;SDS011;73638;49.676;8.606;2024-03-02T03:50:25;6.1292;;;10.4647;;
43413;SDS011;73638;49.676;8.606;2024-03-02T03:55:31;6.7623;;;12.895;;
43413;SDS011;73638;49.676;8.606;2024-03-02T04:00:38;8.0804;;;14.2952;;
43413;SDS011;73638;49.676;8.606;2024-03-02T04:05:44;7.0964;;;13.4108;;
43413;SDS011;73638;49.676;8.606;2024-03-02T04:10:51;7.3818;;;10.8776;;
43413;SDS011;73638;49.676;8.606;2024-03-02T04:15:58;6.8122;;;12.2156;;
43413;SDS011;73638;49.676;8.606;2024-03-02T04:21:04;6.7802;;;12.2244;;
43413;SDS011;73638;49.676;8.606;2024-03-02T04:26:11;7.3439;;;13.0497;;
43413;SDS011;73638;49.676;8.606;2024-03-02T04:31:17;7.1731;;;11.6461;;
43413;SDS011;73638;49.676;8.606;2024-03-02T04:36:24;7.6917;;;13.7535;;
43413;SDS011;73638;49.676;8.606;2024-03-02T04:41:30;7.4891;;;12.1384;;
43413;SDS011;73638;49.676;8.606;2024-03-02T04:46:37;6.903;;;12.2625;;
43413;SDS011;73638;49.676;8.606;2024-03-02T04:51:43;7.1002;;;12.8365;;
43413;SDS011;73638;49.676;8.606;2024-03-02T04:56:50;7.9913;;;13.6361;;
43413;SDS011;73638;49.676;8.606;2024-03-02T05:01:57;7.5653;;;13.7799;;
43413;SDS011;73638;49.676;8.606;2024-03-02T05:07:04;7.0866;;;11.7092;;
43413;SDS011;73638;49.676;8.606;2024-03-02T05:12:10;7.6353;;;14.224;;
43413;SDS011;73638;49.676;8.606;2024-03-02T05:17:17;8.2587;;;14.4395;;
43413;SDS011;73638;49.676;8.606;2024-03-02T05:22:24;8.8704;;;15.5192;;
43413;SDS011;73638;49.676;8.606;2024-03-02T05:27:30;8.9921;;;16.0906;;
43413;SDS011;73638;49.676;8.606;2024-03-02T05:32:36;8.5685;;;20.2653;;
43413;SDS011;73638;49.676;8.606;2024-03-02T05:37:43;9.2455;;;19.6786;;
43413;SDS011;73638;49.676;8.606;2024-03-02T05:42:49;8.4139;;;15.1173;;
43413;SDS011;73638;49.676;8.606;2024-03-02T05:47:56;9.2969;;;21.8599;;
43413;SDS011;73638;49.676;8.606;2024-03-02T05:53:03;8.9692;;;14.1302;;
43413;SDS011;73638;49.676;8.606;2024-03-02T05:58:09;8.6404;;;15.0502;;
43413;SDS011;73638;49.676;8.606;2024-03-02T06:03:16;7.1563;;;10.9991;;
43413;SDS011;73638;49.676;8.606;2024-03-02T06:08:22;8.9849;;;14.1814;;
43413;SDS011;73638;49.676;8.606;2024-03-02T06:13:29;9.3471;;;15.6408;;
43413;SDS011;73638;49.676;8.606;2024-03-02T06:18:36;8.3525;;;14.7106;;
43413;SDS011;73638;49.676;8.606;2024-03-02T06:23:42;8.4365;;;14.7382;;
43413;SDS011;73638;49.676;8.606;2024-03-02T06:28:49;8.0009;;;12.149;;
43413;SDS011;73638;49.676;8.606;2024-03-02T06:33:56;8.1759;;;15.614;;
43413;SDS011;73638;49.676;8.606;2024-03-02T06:39:02;8.9551;;;18.371;;
43413;SDS011;73638;49.676;8.606;2024-03-02T06:44:09;10.0927;;;20.3435;;
43413;SDS011;73638;49.676;8.606;2024-03-02T06:49:16;11.6869;;;23.27;;
43413;SDS011;73638;49.676;8.606;2024-03-02T06:54:22;9.5288;;;16.698;;
43413;SDS011;73638;49.676;8.606;2024-03-02T06:59:29;7.613;;;13.4829;;
43413;SDS011;73638;49.676;8.606;2024-03-02T07:04:35;7.7404;;;16.3162;;
43413;SDS011;73638;49.676;8.606;2024-03-02T07:09:42;7.587;;;15.7421;;
43413;SDS011;73638;49.676;8.606;2024-03-02T07:14:48;8.5701;;;16.8699;;
43413;SDS011;73638;49.676;8.606;2024-03-02T07:19:55;8.8106;;;13.2126;;
43413;SDS011;73638;49.676;8.606;2024-03-02T07:25:02;8.1975;;;13.4868;;
43413;SDS011;73638;49.676;8.606;2024-03-02T07:30:09;7.2276;;;12.532;;
43413;SDS011;73638;49.676;8.606;2024-03-02T07:35:17;6.7277;;;11.4786;;
43413;SDS011;73638;49.676;8.606;2024-03-02T07:40:23;7.3825;;;12.9826;;
43413;SDS011;73638;49.676;8.606;2024-03-02T07:45:30;8.1371;;;14.4165;;
43413;SDS011;73638;49.676;8.606;2024-03-02T07:50:38;9.3817;;;18.005;;
43413;SDS011;73638;49.676;8.606;2024-03-02T07:55:44;10.583;;;19.5326;;
43413;SDS011;73638;49.676;8.606;2024-03-02T08:00:55;9.4996;;;15.294;;
43413;SDS011;73638;49.676;8.606;2024-03-02T08:05:58;9.8112;;;15.5736;;
43413;SDS011;73638;49.676;8.606;2024-03-02T08:11:05;10.2462;;;17.305;;
43413;SDS011;73638;49.676;8.606;2024-03-02T08:16:12;10.4119;;;15.6454;;
43413;SDS011;73638;49.676;8.606;2024-03-02T08:21:19;10.4184;;;15.9863;;
43413;SDS011;73638;49.676;8.606;2024-03-02T08:26:26;10.1344;;;15.15;;
43413;SDS011;73638;49.676;8.606;2024-03-02T08:31:33;9.2948;;;15.5767;;
43413;SDS011;73638;49.676;8.606;2024-03-02T08:36:40;8.856;;;15.2577;;
43413;SDS011;73638;49.676;8.606;2024-03-02T08:41:47;9.2705;;;17.8665;;
43413;SDS011;73638;49.676;8.606;2024-03-02T08:46:53;9.6939;;;17.0608;;
43413;SDS011;73638;49.676;8.606;2024-03-02T08:52:00;9.6642;;;16.8979;;
43413;SDS011;73638;49.676;8.606;2024-03-02T08:57:07;9.9342;;;16.7342;;
43413;SDS011;73638;49.676;8.606;2024-03-02T09:02:13;10.2166;;;16.4392;;
43413;SDS011;73638;49.676;8.606;2024-03-02T09:07:20;9.2169;;;18.3129;;
43413;SDS011;73638;49.676;8.606;2024-03-02T09:12:27;9.5686;;;16.4704;;
43413;SDS011;73638;49.676;8.606;2024-03-02T09:17:34;9.2301;;;15.1814;;
43413;SDS011;73638;49.676;8.606;2024-03-02T09:22:41;9.07;;;15.3067;;
43413;SDS011;73638;49.676;8.606;2024-03-02T09:27:48;10.1118;;;17.5291;;
43413;SDS011;73638;49.676;8.606;2024-03-02T09:33:17;8.7617;;;13.8695;;
43413;SDS011;73638;49.676;8.606;2024-03-02T09:38:02;7.6537;;;11.6211;;
43413;SDS011;73638;49.676;8.606;2024-03-02T09:43:09;8.1943;;;12.8735;;
43413;SDS011;73638;49.676;8.606;2024-03-02T09:48:16;7.7035;;;17.1478;;
43413;SDS011;73638;49.676;8.606;2024-03-02T09:53:23;7.3948;;;11.652;;
43413;SDS011;73638;49.676;8.606;2024-03-02T09:58:30;7.3078;;;12.69;;
43413;SDS011;73638;49.676;8.606;2024-03-02T10:03:37;6.8633;;;11.8425;;
43413;SDS011;73638;49.676;8.606;2024-03-02T10:08:44;6.672;;;10.9617;;
43413;SDS011;73638;49.676;8.606;2024-03-02T10:13:51;6.6117;;;10.9806;;
43413;SDS011;73638;49.676;8.606;2024-03-02T10:18:58;6.3319;;;9.9751;;
43413;SDS011;73638;49.676;8.606;2024-03-02T10:24:06;7.2589;;;11.8771;;
43413;SDS011;73638;49.676;8.606;2024-03-02T10:29:11;6.5363;;;10.7849;;
43413;SDS011;73638;49.676;8.606;2024-03-02T10:34:18;6.3761;;;11.8515;;
43413;SDS011;73638;49.676;8.606;2024-03-02T10:39:25;6.4202;;;13.4787;;
43413;SDS011;73638;49.676;8.606;2024-03-02T10:44:32;5.9988;;;14.9085;;
43413;SDS011;73638;49.676;8.606;2024-03-02T10:49:39;5.1623;;;8.0213;;
43413;SDS011;73638;49.676;8.606;2024-03-02T10:54:45;6.0196;;;9.6527;;
43413;SDS011;73638;49.676;8.606;2024-03-02T10:59:56;4.6236;;;7.0723;;
43413;SDS011;73638;49.676;8.606;2024-03-02T11:05:02;4.2234;;;7.7798;;
43413;SDS011;73638;49.676;8.606;2024-03-02T11:10:08;4.2045;;;7.184;;
43413;SDS011;73638;49.676;8.606;2024-03-02T11:15:17;3.2642;;;6.9017;;
43413;SDS011;73638;49.676;8.606;2024-03-02T11:20:23;3.8483;;;7.4001;;
43413;SDS011;73638;49.676;8.606;2024-03-02T11:25:31;1.8517;;;2.9035;;
43413;SDS011;73638;49.676;8.606;2024-03-02T11:30:53;1.9422;;;2.5036;;
43413;SDS011;73638;49.676;8.606;2024-03-02T11:35:45;1.6016;;;2.6638;;
43413;SDS011;73638;49.676;8.606;2024-03-02T11:40:51;1.4442;;;1.7525;;
43413;SDS011;73638;49.676;8.606;2024-03-02T11:45:59;1.04;;;2.0181;;
43413;SDS011;73638;49.676;8.606;2024-03-02T11:51:05;1.0716;;;2.376;;
43413;SDS011;73638;49.676;8.606;2024-03-02T11:56:12;0.8197;;;3.8738;;
43413;SDS011;73638;49.676;8.606;2024-03-02T12:01:19;0.8458;;;2.1751;;
43413;SDS011;73638;49.676;8.606;2024-03-02T12:06:25;0.9194;;;1.2666;;
43413;SDS011;73638;49.676;8.606;2024-03-02T12:11:32;1.0666;;;1.6655;;
43413;SDS011;73638;49.676;8.606;2024-03-02T12:16:43;0.9459;;;1.2839;;
43413;SDS011;73638;49.676;8.606;2024-03-02T12:21:47;0.8931;;;1.4468;;
43413;SDS011;73638;49.676;8.606;2024-03-02T12:26:54;1.1978;;;2.0468;;
43413;SDS011;73638;49.676;8.606;2024-03-02T12:32:01;1.4396;;;6.0647;;
43413;SDS011;73638;49.676;8.606;2024-03-02T12:37:08;1.6129;;;2.3729;;
43413;SDS011;73638;49.676;8.606;2024-03-02T12:42:14;1.6763;;;2.6505;;
43413;SDS011;73638;49.676;8.606;2024-03-02T12:47:21;1.4135;;;3.287;;
43413;SDS011;73638;49.676;8.606;2024-03-02T12:52:28;1.3767;;;4.9113;;
43413;SDS011;73638;49.676;8.606;2024-03-02T12:57:35;1.4295;;;2.2538;;
43413;SDS011;73638;49.676;8.606;2024-03-02T13:02:42;1.4765;;;2.6899;;
43413;SDS011;73638;49.676;8.606;2024-03-02T13:07:50;1.655;;;2.9472;;
43413;SDS011;73638;49.676;8.606;2024-03-02T13:12:56;1.4558;;;2.2284;;
43413;SDS011;73638;49.676;8.606;2024-03-02T13:18:03;1.3611;;;2.4653;;
43413;SDS011;73638;49.676;8.606;2024-03-02T13:23:10;1.2927;;;1.7702;;
43413;SDS011;73638;49.676;8.606;2024-03-02T13:28:17;1.513;;;2.5367;;
43413;SDS011;73638;49.676;8.606;2024-03-02T13:33:24;1.3396;;;2.9559;;
43413;SDS011;73638;49.676;8.606;2024-03-02T13:38:31;1.4239;;;3.6255;;
43413;SDS011;73638;49.676;8.606;2024-03-02T13:43:38;1.7019;;;2.2926;;
43413;SDS011;73638;49.676;8.606;2024-03-02T13:48:45;1.1506;;;1.9796;;
43413;SDS011;73638;49.676;8.606;2024-03-02T13:53:51;1.2031;;;1.6234;;
43413;SDS011;73638;49.676;8.606;2024-03-02T13:58:58;1.4291;;;2.1359;;
43413;SDS011;73638;49.676;8.606;2024-03-02T14:04:05;1.5765;;;2.7499;;
43413;SDS011;73638;49.676;8.606;2024-03-02T14:09:12;1.4187;;;1.8266;;
43413;SDS011;73638;49.676;8.606;2024-03-02T14:14:19;1.5238;;;2.4632;;
43413;SDS011;73638;49.676;8.606;2024-03-02T14:19:26;1.0982;;;1.9145;;
43413;SDS011;73638;49.676;8.606;2024-03-02T14:24:33;1.2191;;;1.6199;;
43413;SDS011;73638;49.676;8.606;2024-03-02T14:29:41;0.9511;;;1.7954;;
43413;SDS011;73638;49.676;8.606;2024-03-02T14:34:47;1.0246;;;2.551;;
43413;SDS011;73638;49.676;8.606;2024-03-02T14:39:54;0.746;;;1.0286;;
43413;SDS011;73638;49.676;8.606;2024-03-02T14:45:00;0.7144;;;1.0068;;
43413;SDS011;73638;49.676;8.606;2024-03-02T14:50:08;0.3993;;;0.657;;
43413;SDS011;73638;49.676;8.606;2024-03-02T14:55:15;0.3468;;;0.7659;;
43413;SDS011;73638;49.676;8.606;2024-03-02T15:00:21;0.7251;;;0.7865;;
43413;SDS011;73638;49.676;8.606;2024-03-02T15:05:28;0.5833;;;0.6108;;
43413;SDS011;73638;49.676;8.606;2024-03-02T15:10:35;0.8145;;;2.7584;;
43413;SDS011;73638;49.676;8.606;2024-03-02T15:15:42;0.5097;;;0.7142;;
43413;SDS011;73638;49.676;8.606;2024-03-02T15:20:49;0.846;;;1.3925;;
43413;SDS011;73638;49.676;8.606;2024-03-02T15:25:56;0.536;;;0.7351;;
43413;SDS011;73638;49.676;8.606;2024-03-02T15:31:03;0.4362;;;1.1702;;
43413;SDS011;73638;49.676;8.606;2024-03-02T15:36:10;0.578;;;0.8074;;
43413;SDS011;73638;49.676;8.606;2024-03-02T15:41:17;0.5832;;;2.7417;;
43413;SDS011;73638;49.676;8.606;2024-03-02T15:46:23;0.3258;;;0.4036;;
43413;SDS011;73638;49.676;8.606;2024-03-02T15:51:30;0.5779;;;1.8811;;
43413;SDS011;73638;49.676;8.606;2024-03-02T15:56:39;0.835;;;2.4588;;
43413;SDS011;73638;49.676;8.606;2024-03-02T16:01:44;0.7664;;;1.5368;;
43413;SDS011;73638;49.676;8.606;2024-03-02T16:06:51;0.8133;;;1.6159;;
43413;SDS011;73638;49.676;8.606;2024-03-02T16:11:58;0.9809;;;1.8179;;
43413;SDS011;73638;49.676;8.606;2024-03-02T16:17:08;1.0016;;;3.676;;
43413;SDS011;73638;49.676;8.606;2024-03-02T16:22:11;1.0958;;;1.7669;;
43413;SDS011;73638;49.676;8.606;2024-03-02T16:27:18;1.1266;;;4.9996;;
43413;SDS011;73638;49.676;8.606;2024-03-02T16:32:25;1.7239;;;8.7311;;
43413;SDS011;73638;49.676;8.606;2024-03-02T16:37:32;1.3357;;;1.9769;;
43413;SDS011;73638;49.676;8.606;2024-03-02T16:42:38;1.4135;;;3.0365;;
43413;SDS011;73638;49.676;8.606;2024-03-02T16:47:45;1.4183;;;3.8935;;
43413;SDS011;73638;49.676;8.606;2024-03-02T16:52:51;1.6112;;;2.3944;;
43413;SDS011;73638;49.676;8.606;2024-03-02T16:57:58;1.852;;;3.3106;;
43413;SDS011;73638;49.676;8.606;2024-03-02T17:03:05;2.0037;;;3.8608;;
43413;SDS011;73638;49.676;8.606;2024-03-02T17:08:12;2.0967;;;4.3099;;
43413;SDS011;73638;49.676;8.606;2024-03-02T17:13:18;2.4256;;;3.6464;;
43413;SDS011;73638;49.676;8.606;2024-03-02T17:18:25;2.2017;;;3.3302;;
43413;SDS011;73638;49.676;8.606;2024-03-02T17:23:32;2.7506;;;5.0335;;
43413;SDS011;73638;49.676;8.606;2024-03-02T17:28:39;3.0436;;;7.0624;;
43413;SDS011;73638;49.676;8.606;2024-03-02T17:33:46;2.6524;;;6.7419;;
43413;SDS011;73638;49.676;8.606;2024-03-02T17:38:53;2.6788;;;5.1817;;
43413;SDS011;73638;49.676;8.606;2024-03-02T17:44:00;2.5698;;;5.499;;
43413;SDS011;73638;49.676;8.606;2024-03-02T17:49:06;9.1782;;;18.4467;;
43413;SDS011;73638;49.676;8.606;2024-03-02T17:54:13;5.3156;;;9.2527;;
43413;SDS011;73638;49.676;8.606;2024-03-02T17:59:20;4.064;;;8.08;;
43413;SDS011;73638;49.676;8.606;2024-03-02T18:04:27;5.2228;;;10.2671;;
43413;SDS011;73638;49.676;8.606;2024-03-02T18:09:34;5.1799;;;8.1695;;
43413;SDS011;73638;49.676;8.606;2024-03-02T18:14:41;4.0176;;;7.5487;;
43413;SDS011;73638;49.676;8.606;2024-03-02T18:19:49;4.3266;;;7.9747;;
43413;SDS011;73638;49.676;8.606;2024-03-02T18:24:55;2.7404;;;4.6127;;
43413;SDS011;73638;49.676;8.606;2024-03-02T18:30:02;1.3157;;;1.9845;;
43413;SDS011;73638;49.676;8.606;2024-03-02T18:35:09;1.468;;;2.3234;;
43413;SDS011;73638;49.676;8.606;2024-03-02T18:40:16;1.0538;;;1.6951;;
43413;SDS011;73638;49.676;8.606;2024-03-02T18:45:23;1.7772;;;5.0484;;
43413;SDS011;73638;49.676;8.606;2024-03-02T18:50:29;1.3213;;;1.7828;;
43413;SDS011;73638;49.676;8.606;2024-03-02T18:55:36;1.3319;;;4.4006;;
43413;SDS011;73638;49.676;8.606;2024-03-02T19:00:44;1.7146;;;3.2544;;
43413;SDS011;73638;49.676;8.606;2024-03-02T19:05:50;1.903;;;2.869;;
43413;SDS011;73638;49.676;8.606;2024-03-02T19:10:57;1.3527;;;2.1506;;
43413;SDS011;73638;49.676;8.606;2024-03-02T19:16:04;1.8033;;;3.4244;;
43413;SDS011;73638;49.676;8.606;2024-03-02T19:16:09;1.8033;;;3.4244;;
43413;SDS011;73638;49.676;8.606;2024-03-02T19:21:18;1.5778;;;3.1322;;
43413;SDS011;73638;49.676;8.606;2024-03-02T19:26:20;2.4728;;;3.9633;;
43413;SDS011;73638;49.676;8.606;2024-03-02T19:31:26;2.8502;;;5.252;;
43413;SDS011;73638;49.676;8.606;2024-03-02T19:36:33;1.8648;;;2.6739;;
43413;SDS011;73638;49.676;8.606;2024-03-02T19:41:40;1.7758;;;2.6437;;
43413;SDS011;73638;49.676;8.606;2024-03-02T19:46:47;2.4767;;;5.4139;;
43413;SDS011;73638;49.676;8.606;2024-03-02T19:51:53;3.3135;;;6.9066;;
43413;SDS011;73638;49.676;8.606;2024-03-02T19:57:00;2.8782;;;4.6046;;
43413;SDS011;73638;49.676;8.606;2024-03-02T20:02:07;3.6636;;;7.5899;;
43413;SDS011;73638;49.676;8.606;2024-03-02T20:07:14;3.7364;;;5.5559;;
43413;SDS011;73638;49.676;8.606;2024-03-02T20:12:20;3.9436;;;7.9852;;
43413;SDS011;73638;49.676;8.606;2024-03-02T20:17:27;14.594;;;29.6741;;
43413;SDS011;73638;49.676;8.606;2024-03-02T20:22:34;5.8511;;;10.3111;;
43413;SDS011;73638;49.676;8.606;2024-03-02T20:27:41;7.4159;;;14.1643;;
43413;SDS011;73638;49.676;8.606;2024-03-02T20:32:48;6.6149;;;11.877;;
43413;SDS011;73638;49.676;8.606;2024-03-02T20:37:54;6.0143;;;9.5926;;
43413;SDS011;73638;49.676;8.606;2024-03-02T20:43:01;7.0238;;;11.6727;;
43413;SDS011;73638;49.676;8.606;2024-03-02T20:48:08;6.9031;;;12.3605;;
43413;SDS011;73638;49.676;8.606;2024-03-02T20:53:15;6.4153;;;11.5071;;
43413;SDS011;73638;49.676;8.606;2024-03-02T20:58:21;7.1129;;;12.0423;;
43413;SDS011;73638;49.676;8.606;2024-03-02T21:03:28;5.733;;;11.5398;;
43413;SDS011;73638;49.676;8.606;2024-03-02T21:08:35;5.3312;;;8.6029;;
43413;SDS011;73638;49.676;8.606;2024-03-02T21:13:42;6.0231;;;11.3081;;
43413;SDS011;73638;49.676;8.606;2024-03-02T21:18:48;6.1365;;;9.1912;;
43413;SDS011;73638;49.676;8.606;2024-03-02T21:23:55;5.5956;;;11.472;;
43413;SDS011;73638;49.676;8.606;2024-03-02T21:29:02;4.487;;;7.2094;;
43413;SDS011;73638;49.676;8.606;2024-03-02T21:34:08;3.5316;;;5.6063;;
43413;SDS011;73638;49.676;8.606;2024-03-02T21:39:15;4.1544;;;8.5509;;
43413;SDS011;73638;49.676;8.606;2024-03-02T21:44:22;4.0386;;;8.3066;;
43413;SDS011;73638;49.676;8.606;2024-03-02T21:49:34;3.9917;;;6.4437;;
43413;SDS011;73638;49.676;8.606;2024-03-02T21:54:36;4.3469;;;8.5408;;
43413;SDS011;73638;49.676;8.606;2024-03-02T21:59:43;3.8823;;;7.3622;;
43413;SDS011;73638;49.676;8.606;2024-03-02T22:04:50;4.0976;;;7.2419;;
43413;SDS011;73638;49.676;8.606;2024-03-02T22:09:57;4.0863;;;8.069;;
43413;SDS011;73638;49.676;8.606;2024-03-02T22:15:04;4.7348;;;10.9027;;
43413;SDS011;73638;49.676;8.606;2024-03-02T22:20:11;4.5183;;;8.3442;;
43413;SDS011;73638;49.676;8.606;2024-03-02T22:25:17;3.9997;;;6.9352;;
43413;SDS011;73638;49.676;8.606;2024-03-02T22:30:24;4.166;;;5.3617;;
43413;SDS011;73638;49.676;8.606;2024-03-02T22:35:31;4.1911;;;7.9311;;
43413;SDS011;73638;49.676;8.606;2024-03-02T22:40:38;5.252;;;10.8691;;
43413;SDS011;73638;49.676;8.606;2024-03-02T22:45:44;5.5665;;;12.6091;;
43413;SDS011;73638;49.676;8.606;2024-03-02T22:50:51;4.712;;;7.9933;;
43413;SDS011;73638;49.676;8.606;2024-03-02T22:56:00;4.5124;;;7.6249;;
43413;SDS011;73638;49.676;8.606;2024-03-02T23:01:07;5.1934;;;9.2263;;
43413;SDS011;73638;49.676;8.606;2024-03-02T23:06:13;5.9494;;;12.2911;;
43413;SDS011;73638;49.676;8.606;2024-03-02T23:11:20;6.0338;;;11.9045;;
43413;SDS011;73638;49.676;8.606;2024-03-02T23:16:26;6.5464;;;12.372;;
43413;SDS011;73638;49.676;8.606;2024-03-02T23:21:33;6.1319;;;13.4186;;
43413;SDS011;73638;49.676;8.606;2024-03-02T23:26:40;5.6333;;;9.7242;;
43413;SDS011;73638;49.676;8.606;2024-03-02T23:31:46;6.134;;;11.3008;;
43413;SDS011;73638;49.676;8.606;2024-03-02T23:36:53;6.5073;;;13.4906;;
43413;SDS011;73638;49.676;8.606;2024-03-02T23:42:00;5.5323;;;11.3837;;
43413;SDS011;73638;49.676;8.606;2024-03-02T23:47:07;6.543;;;12.3308;;
43413;SDS011;73638;49.676;8.606;2024-03-02T23:52:14;5.4853;;;10.8359;;
43413;SDS011;73638;49.676;8.606;2024-03-02T23:57:21;6.4031;;;11.7855;;
